createdAt,value
2023-01-25T00:23:48.796Z,28.36
2023-01-25T00:24:48.654Z,28.37
2023-01-25T00:25:48.555Z,28.36
2023-01-25T00:26:48.478Z,28.37
2023-01-25T00:27:48.379Z,28.33
2023-01-25T00:28:48.292Z,28.35
2023-01-25T00:29:48.204Z,28.36
2023-01-25T00:30:48.096Z,28.35
2023-01-25T00:31:48.128Z,28.34
2023-01-25T00:32:47.977Z,28.34
2023-01-25T00:33:47.835Z,28.34
2023-01-25T00:34:47.747Z,28.35
2023-01-25T00:35:47.655Z,28.32
2023-01-25T00:36:47.552Z,28.31
2023-01-25T00:37:47.459Z,28.31
2023-01-25T00:38:47.373Z,28.30
2023-01-25T00:57:45.613Z,28.26
2023-01-25T00:58:45.550Z,28.26
2023-01-25T00:59:45.424Z,28.23
2023-01-25T01:00:45.417Z,28.28
2023-01-25T01:01:45.240Z,28.25
2023-01-25T01:02:45.138Z,28.23
2023-01-25T01:03:45.062Z,28.23
2023-01-25T01:04:45.019Z,28.24
2023-01-25T02:09:38.818Z,27.92
2023-01-25T02:11:38.614Z,27.93
2023-01-25T02:12:38.511Z,27.95
2023-01-25T02:13:38.419Z,27.97
2023-01-25T02:14:38.319Z,27.94
2023-01-25T02:15:38.237Z,27.93
2023-01-25T02:16:38.110Z,27.94
2023-01-25T02:18:37.918Z,27.91
2023-01-25T02:19:37.870Z,27.91
2023-01-25T02:20:37.752Z,27.93
2023-01-25T02:21:37.637Z,27.91
2023-01-25T02:22:37.548Z,27.89
2023-01-25T02:23:37.465Z,27.89
2023-01-25T02:24:37.351Z,27.90
2023-01-25T02:25:37.258Z,27.89
2023-01-25T02:26:37.171Z,27.90
2023-01-25T02:27:37.080Z,27.90
2023-01-25T02:28:36.986Z,27.90
2023-01-25T02:29:36.887Z,27.87
2023-01-25T02:30:36.807Z,27.90
2023-01-25T02:31:36.800Z,27.87
2023-01-25T02:32:36.614Z,27.88
2023-01-25T02:33:36.517Z,27.87
2023-01-25T02:34:36.442Z,27.88
2023-01-25T02:35:36.341Z,27.88
2023-01-25T02:36:36.383Z,27.87
2023-01-25T02:37:36.158Z,27.86
2023-01-25T02:38:36.050Z,27.87
2023-01-25T02:39:35.970Z,27.83
2023-01-25T02:41:35.781Z,27.84
2023-01-25T02:43:35.581Z,27.88
2023-01-25T02:44:35.482Z,27.85
2023-01-25T02:45:35.400Z,27.84
2023-01-25T02:46:35.335Z,27.86
2023-01-25T02:47:35.225Z,27.86
2023-01-25T02:48:35.116Z,27.85
2023-01-25T02:49:35.024Z,27.82
2023-01-25T02:50:34.926Z,27.82
2023-01-25T04:09:27.516Z,27.44
2023-01-25T04:10:27.390Z,27.43
2023-01-25T04:11:27.296Z,27.44
2023-01-25T04:12:27.187Z,27.39
2023-01-25T04:13:27.088Z,27.35
2023-01-25T04:14:43.321Z,27.33
2023-01-25T04:16:26.768Z,27.32
2023-01-25T04:17:26.609Z,27.31
2023-01-25T04:18:26.492Z,27.31
2023-01-25T04:19:26.373Z,27.30
2023-01-25T04:20:26.274Z,27.26
2023-01-25T04:21:26.130Z,27.26
2023-01-25T04:22:26.023Z,27.21
2023-01-25T04:23:25.905Z,27.20
2023-01-25T04:24:25.810Z,27.18
2023-01-25T04:25:25.646Z,27.14
2023-01-25T04:26:25.534Z,27.15
2023-01-25T04:27:25.409Z,27.14
2023-01-25T04:28:25.298Z,27.11
2023-01-25T04:29:39.153Z,27.11
2023-01-25T04:30:26.062Z,27.12
2023-01-25T04:31:25.034Z,27.10
2023-01-25T04:37:24.221Z,27.05
2023-01-25T04:38:24.091Z,27.02
2023-01-25T04:39:23.984Z,27.03
2023-01-25T04:40:23.857Z,26.98
2023-01-25T04:41:23.742Z,26.98
2023-01-25T04:42:23.619Z,26.99
2023-01-25T04:43:23.487Z,26.99
2023-01-25T04:44:23.378Z,26.96
2023-01-25T04:45:23.289Z,26.98
2023-01-25T04:46:23.204Z,26.97
2023-01-25T04:47:23.102Z,26.98
2023-01-25T04:48:22.976Z,26.94
2023-01-25T04:49:23.580Z,26.95
2023-01-25T04:50:22.771Z,26.97
2023-01-25T04:51:22.669Z,26.95
2023-01-25T04:52:22.541Z,26.94
2023-01-25T04:53:22.428Z,26.96
2023-01-25T04:54:22.312Z,26.95
2023-01-25T04:55:22.206Z,26.93
2023-01-25T04:56:22.090Z,26.93
2023-01-25T04:57:21.973Z,26.93
2023-01-25T04:58:21.870Z,26.93
2023-01-25T04:59:21.744Z,26.91
2023-01-25T05:00:21.658Z,26.92
2023-01-25T05:01:21.587Z,26.93
2023-01-25T05:02:21.546Z,26.92
2023-01-25T05:03:21.318Z,26.92
2023-01-25T05:04:21.223Z,26.92
2023-01-25T05:05:21.123Z,26.91
2023-01-25T05:06:21.042Z,26.90
2023-01-25T05:07:20.970Z,26.91
2023-01-25T05:08:20.883Z,26.88
2023-01-25T05:09:20.778Z,26.90
2023-01-25T05:10:20.679Z,26.89
2023-01-25T05:11:20.567Z,26.89
2023-01-25T05:12:20.484Z,26.91
2023-01-25T05:13:20.394Z,26.91
2023-01-25T05:14:20.295Z,26.91
2023-01-25T05:15:20.205Z,26.91
2023-01-25T05:16:20.169Z,26.94
2023-01-25T05:17:19.978Z,26.93
2023-01-25T05:18:19.847Z,26.94
2023-01-25T05:19:19.735Z,26.93
2023-01-25T05:20:19.613Z,26.95
2023-01-25T05:21:19.495Z,26.94
2023-01-25T05:22:19.383Z,26.94
2023-01-25T05:23:19.258Z,26.95
2023-01-25T05:24:19.210Z,26.98
2023-01-25T05:25:19.011Z,26.96
2023-01-25T05:26:18.881Z,26.98
2023-01-25T05:27:18.767Z,27.00
2023-01-25T05:28:18.658Z,26.99
2023-01-25T05:29:18.547Z,26.99
2023-01-25T05:30:18.416Z,27.00
2023-01-25T05:31:18.454Z,26.99
2023-01-25T05:32:18.174Z,26.99
2023-01-25T05:33:18.063Z,26.95
2023-01-25T05:34:17.942Z,26.95
2023-01-25T05:35:17.845Z,26.97
2023-01-25T05:36:17.713Z,26.98
2023-01-25T05:37:17.653Z,26.96
2023-01-25T05:38:17.483Z,26.98
2023-01-25T05:39:17.359Z,26.99
2023-01-25T05:40:17.241Z,26.99
2023-01-25T05:41:17.116Z,27.01
2023-01-25T05:42:17.004Z,27.01
2023-01-25T05:43:16.896Z,27.00
2023-01-25T05:44:16.761Z,27.00
2023-01-25T05:45:16.641Z,27.02
2023-01-25T05:46:16.623Z,27.03
2023-01-25T05:47:16.415Z,27.04
2023-01-25T05:48:16.300Z,27.04
2023-01-25T05:49:16.172Z,27.07
2023-01-25T05:50:16.060Z,27.07
2023-01-25T05:51:15.936Z,27.06
2023-01-25T05:52:15.821Z,27.06
2023-01-25T05:53:15.703Z,27.07
2023-01-25T05:54:15.593Z,27.06
2023-01-25T05:55:15.962Z,27.07
2023-01-25T05:56:15.364Z,27.07
2023-01-25T05:57:15.261Z,27.07
2023-01-25T05:58:15.142Z,27.06
2023-01-25T05:59:15.034Z,27.05
2023-01-25T06:00:14.916Z,27.03
2023-01-25T06:29:11.643Z,28.45
2023-01-25T06:30:11.535Z,28.97
2023-01-25T06:31:11.459Z,30.13
2023-01-25T06:32:11.307Z,30.25
2023-01-25T06:33:11.152Z,30.56
2023-01-25T06:34:11.025Z,30.86
2023-01-25T06:35:11.241Z,31.29
2023-01-25T06:36:10.816Z,31.38
2023-01-25T06:37:10.746Z,31.86
2023-01-25T06:38:10.670Z,32.00
2023-01-25T06:39:11.120Z,32.21
2023-01-25T06:40:10.527Z,32.21
2023-01-25T06:41:11.221Z,32.56
2023-01-25T06:42:10.355Z,32.59
2023-01-25T06:43:10.276Z,32.56
2023-01-25T06:44:10.180Z,33.04
2023-01-25T06:45:10.501Z,33.49
2023-01-25T06:46:10.091Z,33.51
2023-01-25T06:47:09.900Z,33.57
2023-01-25T06:48:11.153Z,33.59
2023-01-25T06:49:09.648Z,33.60
2023-01-25T06:50:09.522Z,33.52
2023-01-25T06:51:09.366Z,33.16
2023-01-25T06:52:09.227Z,32.12
2023-01-25T06:53:09.098Z,32.84
2023-01-25T06:54:08.944Z,33.07
2023-01-25T06:55:09.112Z,33.21
2023-01-25T06:56:10.740Z,33.33
2023-01-25T06:57:08.539Z,33.26
2023-01-25T06:58:08.393Z,33.34
2023-01-25T06:59:08.260Z,33.45
2023-01-25T07:00:08.110Z,33.65
2023-01-25T07:01:07.968Z,34.00
2023-01-25T07:02:07.880Z,34.28
2023-01-25T07:03:07.755Z,34.48
2023-01-25T07:04:08.972Z,34.63
2023-01-25T07:05:07.775Z,34.84
2023-01-25T07:06:07.251Z,35.10
2023-01-25T07:07:07.110Z,35.33
2023-01-25T07:08:06.968Z,35.32
2023-01-25T07:09:06.810Z,35.30
2023-01-25T07:10:06.667Z,35.41
2023-01-25T07:11:06.737Z,35.65
2023-01-25T07:12:06.376Z,36.03
2023-01-25T07:13:06.229Z,36.14
2023-01-25T07:14:06.108Z,36.21
2023-01-25T07:15:06.007Z,36.45
2023-01-25T07:16:05.793Z,36.56
2023-01-25T07:17:05.645Z,36.68
2023-01-25T07:18:15.670Z,36.87
2023-01-25T07:19:06.367Z,37.04
2023-01-25T07:20:05.213Z,37.12
2023-01-25T07:21:05.069Z,37.16
2023-01-25T07:22:04.976Z,37.34
2023-01-25T08:24:57.516Z,32.89
2023-01-25T08:25:57.459Z,32.66
2023-01-25T08:26:57.297Z,32.55
2023-01-25T08:28:57.082Z,31.13
2023-01-25T08:29:56.967Z,30.75
2023-01-25T08:30:57.771Z,30.13
2023-01-25T08:32:56.671Z,29.05
2023-01-25T08:33:57.163Z,28.83
2023-01-25T08:34:56.435Z,28.41
2023-01-25T08:35:56.295Z,28.56
2023-01-25T08:36:56.179Z,28.65
2023-01-25T08:37:56.052Z,28.82
2023-01-25T08:38:55.942Z,29.01
2023-01-25T08:39:55.840Z,29.53
2023-01-25T08:40:55.663Z,30.35
2023-01-25T08:41:55.539Z,30.83
2023-01-25T08:42:56.168Z,31.19
2023-01-25T08:43:55.279Z,31.43
2023-01-25T08:44:55.138Z,31.25
2023-01-25T08:45:54.995Z,30.44
2023-01-25T08:51:56.204Z,24.58
2023-01-25T08:52:55.130Z,24.98
2023-01-25T09:22:55.693Z,28.66
2023-01-25T10:07:46.089Z,31.58
2023-01-25T10:18:45.083Z,31.65
2023-01-25T10:19:44.972Z,31.56
2023-01-25T10:24:45.203Z,31.44
2023-01-25T11:41:36.200Z,31.11
2023-01-25T11:42:36.132Z,31.10
2023-01-25T11:43:36.017Z,31.07
2023-01-25T11:44:35.924Z,31.09
2023-01-25T11:45:35.848Z,31.05
2023-01-25T11:46:35.793Z,31.04
2023-01-25T11:47:35.651Z,31.04
2023-01-25T11:48:35.566Z,31.04
2023-01-25T11:49:35.464Z,31.05
2023-01-25T11:50:35.381Z,31.04
2023-01-25T11:51:35.295Z,31.03
2023-01-25T11:52:35.202Z,31.03
2023-01-25T11:53:35.116Z,31.03
2023-01-25T11:54:35.045Z,31.01
2023-01-25T11:55:34.957Z,31.01
2023-01-25T11:56:34.884Z,31.00
2023-01-25T13:41:26.329Z,32.01
2023-01-25T13:42:26.215Z,32.02
2023-01-25T13:43:26.108Z,32.02
2023-01-25T13:44:26.003Z,31.99
2023-01-25T13:45:25.924Z,31.98
2023-01-25T13:46:25.776Z,32.00
2023-01-25T13:47:25.666Z,31.99
2023-01-25T13:48:25.546Z,31.98
2023-01-25T13:49:25.430Z,32.00
2023-01-25T13:50:25.301Z,31.97
2023-01-25T13:51:25.194Z,31.99
2023-01-25T13:52:25.077Z,31.97
2023-01-25T13:53:25.001Z,31.95
2023-01-25T14:47:19.957Z,31.71
2023-01-25T14:48:19.872Z,31.70
2023-01-25T14:49:19.766Z,31.69
2023-01-25T14:50:19.653Z,31.72
2023-01-25T14:51:19.570Z,31.73
2023-01-25T14:52:19.465Z,31.70
2023-01-25T14:53:19.351Z,31.68
2023-01-25T14:54:19.268Z,31.68
2023-01-25T14:55:19.154Z,31.66
2023-01-25T14:56:19.052Z,31.67
2023-01-25T14:57:18.942Z,31.65
2023-01-25T14:58:18.840Z,31.65
2023-01-25T14:59:18.718Z,31.62
2023-01-25T15:00:18.607Z,31.62
2023-01-25T15:01:18.561Z,31.61
2023-01-25T15:02:18.427Z,31.61
2023-01-25T15:03:18.267Z,31.61
2023-01-25T15:04:18.167Z,31.60
2023-01-25T15:05:18.067Z,31.61
2023-01-25T15:06:17.937Z,31.61
2023-01-25T15:07:18.623Z,31.59
2023-01-25T15:08:17.729Z,31.59
2023-01-25T15:09:17.614Z,31.57
2023-01-25T15:10:17.489Z,31.57
2023-01-25T15:11:17.372Z,31.57
2023-01-25T15:12:17.253Z,31.56
2023-01-25T15:13:17.151Z,31.57
2023-01-25T15:14:17.040Z,31.53
2023-01-25T15:15:16.928Z,31.50
2023-01-25T15:16:16.867Z,31.50
2023-01-25T15:17:16.703Z,31.46
2023-01-25T15:18:16.614Z,31.45
2023-01-25T15:19:16.478Z,31.46
2023-01-25T15:20:16.376Z,31.44
2023-01-25T15:21:16.250Z,31.43
2023-01-25T15:22:16.153Z,31.42
2023-01-25T15:23:16.050Z,31.42
2023-01-25T15:24:15.967Z,31.40
2023-01-25T15:25:23.871Z,31.41
2023-01-25T15:26:16.711Z,31.37
2023-01-25T15:27:15.576Z,31.35
2023-01-25T15:28:15.471Z,31.39
2023-01-25T15:29:15.344Z,31.36
2023-01-25T15:30:15.238Z,31.24
2023-01-25T15:31:15.255Z,31.24
2023-01-25T15:32:14.978Z,31.24
2023-01-25T16:05:11.005Z,31.31
2023-01-25T16:06:10.892Z,31.31
2023-01-25T16:07:10.791Z,31.34
2023-01-25T16:08:10.672Z,31.31
2023-01-25T16:09:10.590Z,31.31
2023-01-25T16:10:10.894Z,31.32
2023-01-25T16:11:10.354Z,31.30
2023-01-25T16:12:10.234Z,31.29
2023-01-25T16:13:10.131Z,31.32
2023-01-25T16:14:10.023Z,31.35
2023-01-25T16:15:09.909Z,31.34
2023-01-25T16:16:09.792Z,31.33
2023-01-25T16:17:09.677Z,31.30
2023-01-25T16:18:09.567Z,31.34
2023-01-25T16:19:09.446Z,31.32
2023-01-25T16:20:09.737Z,31.35
2023-01-25T16:21:10.505Z,31.33
2023-01-25T16:22:09.155Z,31.37
2023-01-25T16:23:09.051Z,31.35
2023-01-25T16:24:08.959Z,31.34
2023-01-25T16:25:08.844Z,31.35
2023-01-25T16:26:08.732Z,31.36
2023-01-25T16:27:08.627Z,31.37
2023-01-25T16:28:08.502Z,31.34
2023-01-25T16:29:08.426Z,31.34
2023-01-25T16:30:08.500Z,31.34
2023-01-25T16:31:08.866Z,31.36
2023-01-25T16:32:08.113Z,31.38
2023-01-25T16:33:07.964Z,31.36
2023-01-25T16:34:07.892Z,31.34
2023-01-25T16:35:07.767Z,31.32
2023-01-25T16:36:07.704Z,31.35
2023-01-25T16:37:07.546Z,31.32
2023-01-25T16:38:07.428Z,31.36
2023-01-25T16:39:07.327Z,31.36
2023-01-25T16:40:07.232Z,31.39
2023-01-25T16:42:07.016Z,31.38
2023-01-25T16:43:06.902Z,31.39
2023-01-25T16:44:06.813Z,31.39
2023-01-25T16:45:06.688Z,31.39
2023-01-25T16:46:06.607Z,31.43
2023-01-25T16:47:06.491Z,31.39
2023-01-25T16:48:06.380Z,31.38
2023-01-25T16:49:06.260Z,31.38
2023-01-25T16:50:06.162Z,31.38
2023-01-25T16:51:06.052Z,31.39
2023-01-25T16:52:05.948Z,31.41
2023-01-25T16:53:05.845Z,31.41
2023-01-25T16:54:05.755Z,31.41
2023-01-25T16:55:05.630Z,31.40
2023-01-25T16:56:05.525Z,31.37
2023-01-25T16:57:14.970Z,31.38
2023-01-25T16:58:06.307Z,31.39
2023-01-25T16:59:05.224Z,31.41
2023-01-25T17:00:05.057Z,31.39
2023-01-25T17:01:04.945Z,31.37
2023-01-25T18:01:57.860Z,31.42
2023-01-25T18:09:56.968Z,31.40
2023-01-25T18:10:56.872Z,31.41
2023-01-25T18:11:56.758Z,31.41
2023-01-25T18:13:04.466Z,31.41
2023-01-25T18:14:56.409Z,31.36
2023-01-25T18:15:56.288Z,31.37
2023-01-25T18:23:55.339Z,31.39
2023-01-25T18:24:55.166Z,31.37
2023-01-25T18:25:55.057Z,31.35
2023-01-25T18:26:54.939Z,31.35
2023-01-25T18:29:55.407Z,31.36
2023-01-25T19:40:46.948Z,31.27
2023-01-25T19:56:45.358Z,31.25
2023-01-25T19:58:45.140Z,31.23
2023-01-25T19:59:45.034Z,31.27
2023-01-25T20:00:44.932Z,31.25
2023-01-25T20:05:44.438Z,31.25
2023-01-25T20:06:44.360Z,31.26
2023-01-25T20:07:44.234Z,31.26
2023-01-25T20:08:44.133Z,31.28
2023-01-25T20:09:44.046Z,31.26
2023-01-25T20:10:43.937Z,31.27
2023-01-25T20:11:43.851Z,31.27
2023-01-25T20:12:43.744Z,31.25
2023-01-25T20:13:43.684Z,31.23
2023-01-25T20:14:43.528Z,31.24
2023-01-25T20:15:43.459Z,31.22
2023-01-25T20:16:43.323Z,31.23
2023-01-25T20:17:43.225Z,31.25
2023-01-25T20:18:43.149Z,31.23
2023-01-25T20:19:43.057Z,31.24
2023-01-25T20:20:42.910Z,31.25
2023-01-25T20:21:42.831Z,31.23
2023-01-25T20:22:42.721Z,31.23
2023-01-25T20:23:42.632Z,31.22
2023-01-25T20:24:42.534Z,31.23
2023-01-25T20:25:42.441Z,31.22
2023-01-25T20:26:42.328Z,31.24
2023-01-25T20:27:42.233Z,31.22
2023-01-25T20:28:42.165Z,31.21
2023-01-25T20:29:42.040Z,31.23
2023-01-25T20:30:41.969Z,31.21
2023-01-25T20:31:41.925Z,31.19
2023-01-25T20:32:41.775Z,31.22
2023-01-25T20:33:41.651Z,31.22
2023-01-25T20:34:41.545Z,31.23
2023-01-25T20:35:41.442Z,31.23
2023-01-25T20:36:41.354Z,31.22
2023-01-25T20:37:41.242Z,31.19
2023-01-25T20:38:41.157Z,31.20
2023-01-25T20:39:41.050Z,31.18
2023-01-25T20:40:40.950Z,31.17
2023-01-25T20:41:40.871Z,31.16
2023-01-25T20:42:40.748Z,31.14
2023-01-25T20:43:40.653Z,31.16
2023-01-25T20:44:40.591Z,31.18
2023-01-25T20:45:40.468Z,31.18
2023-01-25T20:46:40.445Z,31.19
2023-01-25T20:47:40.270Z,31.22
2023-01-25T20:48:40.170Z,31.22
2023-01-25T20:49:40.091Z,31.19
2023-01-25T20:50:39.976Z,31.20
2023-01-25T20:51:39.869Z,31.21
2023-01-25T20:52:39.767Z,31.17
2023-01-25T20:53:39.699Z,31.18
2023-01-25T20:54:39.572Z,31.15
2023-01-25T20:55:39.465Z,31.15
2023-01-25T20:56:39.376Z,31.18
2023-01-25T20:57:39.284Z,31.18
2023-01-25T20:58:39.176Z,31.19
2023-01-25T20:59:39.062Z,31.19
2023-01-25T21:00:39.045Z,31.17
2023-01-25T21:01:38.935Z,31.19
2023-01-25T21:02:38.786Z,31.17
2023-01-25T21:03:38.675Z,31.19
2023-01-25T21:04:38.567Z,31.15
2023-01-25T21:05:38.462Z,31.15
2023-01-25T21:06:38.372Z,31.15
2023-01-25T21:07:38.264Z,31.16
2023-01-25T21:08:38.158Z,31.14
2023-01-25T21:09:38.068Z,31.13
2023-01-25T21:10:37.983Z,31.12
2023-01-25T21:11:37.870Z,31.11
2023-01-25T21:12:37.767Z,31.12
2023-01-25T21:13:37.688Z,31.13
2023-01-25T21:14:37.577Z,31.14
2023-01-25T21:15:37.478Z,31.14
2023-01-25T21:16:37.453Z,31.14
2023-01-25T21:17:37.274Z,31.13
2023-01-25T21:18:37.200Z,31.16
2023-01-25T21:19:37.094Z,31.14
2023-01-25T21:20:36.981Z,31.12
2023-01-25T21:21:36.880Z,31.12
2023-01-25T21:22:36.782Z,31.06
2023-01-25T21:23:36.688Z,31.10
2023-01-25T21:24:36.590Z,31.10
2023-01-25T21:25:36.487Z,31.12
2023-01-25T21:26:36.379Z,31.11
2023-01-25T21:27:36.279Z,31.11
2023-01-25T21:28:36.192Z,31.09
2023-01-25T21:29:36.093Z,31.11
2023-01-25T21:30:35.983Z,31.10
2023-01-25T21:31:35.959Z,31.09
2023-01-25T21:32:35.795Z,31.10
2023-01-25T21:33:35.687Z,31.11
2023-01-25T21:34:35.597Z,31.10
2023-01-25T21:35:35.503Z,31.09
2023-01-25T21:36:35.408Z,31.10
2023-01-25T21:37:35.311Z,31.10
2023-01-25T21:38:35.205Z,31.13
2023-01-25T21:39:35.116Z,31.09
2023-01-25T21:40:35.029Z,31.11
2023-01-25T21:41:34.949Z,31.10
2023-01-25T22:55:27.567Z,30.85
2023-01-25T22:56:27.451Z,30.85
2023-01-25T22:57:27.351Z,30.84
2023-01-25T22:58:27.237Z,30.80
2023-01-25T22:59:27.154Z,30.84
2023-01-25T23:00:27.047Z,30.84
2023-01-25T23:01:26.948Z,30.82
2023-01-25T23:02:26.848Z,30.83
2023-01-25T23:03:26.813Z,30.83
2023-01-25T23:04:26.695Z,30.83
2023-01-25T23:05:26.548Z,30.82
2023-01-25T23:06:26.450Z,30.81
2023-01-25T23:07:26.353Z,30.79
2023-01-25T23:08:26.257Z,30.82
2023-01-25T23:09:26.213Z,30.84
2023-01-25T23:10:26.069Z,30.82
2023-01-25T23:20:25.067Z,30.76
2023-01-25T23:21:24.948Z,30.76
